createdAt,value
2019-04-25T00:02:34.728Z,10.00
2019-04-25T00:07:42.485Z,10.00
2019-04-25T00:12:48.077Z,10.20
2019-04-25T00:17:52.627Z,10.20
2019-04-25T00:22:57.927Z,10.10
2019-04-25T00:28:03.197Z,10.20
2019-04-25T00:33:11.638Z,10.50
2019-04-25T00:38:15.265Z,10.30
2019-04-25T00:43:21.568Z,10.30
2019-04-25T00:48:25.233Z,10.30
2019-04-25T00:53:28.848Z,10.10
2019-04-25T00:58:53.137Z,9.80
2019-04-25T01:03:58.999Z,9.20
2019-04-25T01:09:08.194Z,9.20
2019-04-25T01:14:17.987Z,9.20
2019-04-25T01:19:24.593Z,9.20
2019-04-25T01:24:29.909Z,9.50
2019-04-25T01:29:33.606Z,9.50
2019-04-25T01:35:00.072Z,9.60
2019-04-25T01:40:18.675Z,9.60
2019-04-25T01:45:24.026Z,9.70
2019-04-25T01:50:35.237Z,9.60
2019-04-25T01:55:52.973Z,9.10
2019-04-25T02:00:52.092Z,9.30
2019-04-25T02:05:57.330Z,9.20
2019-04-25T02:11:04.610Z,9.30
2019-04-25T02:16:14.499Z,9.40
2019-04-25T02:21:19.813Z,9.40
2019-04-25T02:26:26.188Z,9.40
2019-04-25T02:31:36.306Z,9.40
2019-04-25T02:36:39.916Z,9.40
2019-04-25T02:41:44.494Z,9.60
2019-04-25T02:46:55.846Z,9.40
2019-04-25T02:52:12.894Z,9.40
2019-04-25T02:57:17.619Z,9.60
2019-04-25T03:02:21.375Z,9.10
2019-04-25T03:07:28.158Z,9.20
2019-04-25T03:12:35.890Z,9.30
2019-04-25T03:17:40.659Z,9.20
2019-04-25T03:22:44.590Z,9.30
2019-04-25T03:27:54.326Z,9.20
2019-04-25T03:33:04.784Z,9.10
2019-04-25T03:38:07.303Z,8.90
2019-04-25T03:43:15.018Z,8.60
2019-04-25T03:48:18.871Z,8.70
2019-04-25T03:53:23.580Z,9.00
2019-04-25T03:58:35.939Z,8.90
2019-04-25T04:03:39.546Z,8.70
2019-04-25T04:08:45.828Z,8.80
2019-04-25T04:13:49.439Z,8.70
2019-04-25T04:18:54.410Z,8.60
2019-04-25T04:24:11.799Z,8.70
2019-04-25T04:29:17.410Z,8.70
2019-04-25T04:34:23.674Z,8.40
2019-04-25T04:39:29.964Z,8.40
2019-04-25T04:44:35.138Z,8.50
2019-04-25T04:49:41.944Z,8.50
2019-04-25T04:55:03.738Z,8.30
2019-04-25T04:59:58.193Z,8.30
2019-04-25T05:10:33.299Z,8.70
2019-04-25T05:15:39.803Z,8.70
2019-04-25T05:20:52.346Z,8.70
2019-04-25T05:26:05.042Z,8.80
2019-04-25T05:31:15.717Z,8.70
2019-04-25T05:36:18.617Z,8.60
2019-04-25T05:41:40.347Z,8.40
2019-04-25T05:46:48.787Z,8.60
2019-04-25T05:51:55.300Z,8.10
2019-04-25T05:57:03.610Z,8.30
2019-04-25T06:02:10.202Z,8.30
2019-04-25T06:07:14.498Z,8.50
2019-04-25T06:12:23.727Z,8.70
2019-04-25T06:17:45.834Z,9.10
2019-04-25T06:22:56.518Z,9.40
2019-04-25T06:28:10.633Z,9.80
2019-04-25T06:33:17.024Z,10.20
2019-04-25T06:38:26.078Z,10.10
2019-04-25T06:43:28.684Z,10.10
2019-04-25T06:48:36.602Z,9.90
2019-04-25T06:53:45.752Z,10.10
2019-04-25T06:58:51.367Z,10.50
2019-04-25T07:03:54.759Z,10.50
2019-04-25T07:09:00.118Z,10.70
2019-04-25T07:14:04.249Z,10.90
2019-04-25T07:19:07.952Z,11.30
2019-04-25T07:24:11.727Z,11.20
2019-04-25T07:29:36.006Z,11.70
2019-04-25T07:34:41.556Z,12.30
2019-04-25T07:39:45.899Z,12.40
2019-04-25T07:44:55.184Z,12.50
2019-04-25T07:49:58.903Z,13.00
2019-04-25T07:55:04.238Z,13.10
2019-04-25T08:00:19.939Z,12.90
2019-04-25T08:05:28.207Z,13.40
2019-04-25T08:10:34.958Z,14.10
2019-04-25T08:15:40.203Z,13.90
2019-04-25T08:20:43.883Z,14.50
2019-04-25T08:25:47.554Z,15.20
2019-04-25T08:30:51.371Z,15.60
2019-04-25T08:36:06.541Z,16.10
2019-04-25T08:41:04.094Z,16.50
2019-04-25T08:46:14.172Z,16.60
2019-04-25T08:51:19.413Z,17.40
2019-04-25T08:56:24.683Z,17.20
2019-04-25T09:01:48.232Z,17.30
2019-04-25T09:07:35.462Z,17.90
2019-04-25T09:12:41.853Z,18.40
2019-04-25T09:17:48.357Z,19.00
2019-04-25T09:22:54.700Z,19.00
2019-04-25T09:27:58.309Z,19.00
2019-04-25T09:33:03.086Z,19.50
2019-04-25T09:38:15.145Z,20.00
2019-04-25T09:43:18.916Z,20.30
2019-04-25T09:48:35.377Z,20.80
2019-04-25T09:53:50.028Z,21.50
2019-04-25T09:59:01.112Z,21.80
2019-04-25T10:04:06.509Z,21.90
2019-04-25T10:09:16.958Z,22.40
2019-04-25T10:14:26.348Z,21.80
2019-04-25T10:19:31.770Z,21.70
2019-04-25T10:24:40.160Z,21.20
2019-04-25T10:29:50.946Z,21.00
2019-04-25T10:34:52.631Z,21.10
2019-04-25T10:40:13.411Z,20.60
2019-04-25T10:45:20.419Z,20.60
2019-04-25T10:50:16.666Z,21.00
2019-04-25T10:55:35.696Z,20.90
2019-04-25T11:00:47.551Z,21.30
2019-04-25T11:05:57.995Z,21.80
2019-04-25T11:11:05.282Z,21.80
2019-04-25T11:16:09.587Z,22.20
2019-04-25T11:21:16.241Z,22.20
2019-04-25T11:26:34.826Z,22.00
2019-04-25T11:31:44.818Z,22.70
2019-04-25T11:36:48.485Z,23.40
2019-04-25T11:42:00.042Z,23.40
2019-04-25T11:47:08.362Z,23.90
2019-04-25T11:52:21.406Z,23.90
2019-04-25T11:57:19.145Z,23.80
2019-04-25T12:02:25.022Z,24.20
2019-04-25T12:07:31.436Z,23.70
2019-04-25T12:12:37.184Z,23.60
2019-04-25T12:17:52.523Z,23.40
2019-04-25T12:23:08.067Z,23.10
2019-04-25T12:28:07.174Z,23.10
2019-04-25T12:33:20.437Z,23.10
2019-04-25T12:38:16.441Z,23.10
2019-04-25T12:43:24.513Z,23.20
2019-04-25T12:48:34.040Z,23.60
2019-04-25T12:53:37.898Z,23.60
2019-04-25T12:58:44.597Z,23.60
2019-04-25T13:03:50.835Z,23.60
2019-04-25T13:08:54.490Z,23.90
2019-04-25T13:14:00.593Z,24.10
2019-04-25T13:19:17.839Z,24.00
2019-04-25T13:24:11.913Z,24.60
2019-04-25T13:29:23.191Z,24.80
2019-04-25T13:34:36.337Z,25.30
2019-04-25T13:39:38.400Z,24.50
2019-04-25T13:44:42.090Z,24.60
2019-04-25T13:49:45.706Z,24.60
2019-04-25T13:54:49.351Z,24.30
2019-04-25T13:59:54.114Z,24.10
2019-04-25T14:04:58.009Z,24.10
2019-04-25T14:10:04.689Z,24.20
2019-04-25T14:15:10.075Z,23.70
2019-04-25T14:20:18.602Z,23.60
2019-04-25T14:25:26.213Z,23.60
2019-04-25T14:30:30.784Z,23.50
2019-04-25T14:35:34.479Z,23.30
2019-04-25T14:40:38.118Z,23.30
2019-04-25T14:45:44.974Z,23.20
2019-04-25T14:50:47.182Z,23.40
2019-04-25T14:55:52.448Z,23.20
2019-04-25T15:00:57.902Z,23.00
2019-04-25T15:06:01.591Z,23.10
2019-04-25T15:11:07.121Z,23.00
2019-04-25T15:16:10.753Z,23.00
2019-04-25T15:21:14.449Z,23.00
2019-04-25T15:26:18.145Z,22.90
2019-04-25T15:31:25.544Z,23.00
2019-04-25T15:36:31.875Z,22.90
2019-04-25T15:41:37.474Z,22.80
2019-04-25T15:46:42.890Z,22.80
2019-04-25T15:51:47.946Z,22.80
2019-04-25T15:57:00.914Z,23.00
2019-04-25T16:02:09.001Z,23.00
2019-04-25T16:07:13.695Z,23.30
2019-04-25T16:12:24.534Z,23.40
2019-04-25T16:17:28.571Z,23.20
2019-04-25T16:22:47.331Z,23.00
2019-04-25T16:27:50.971Z,23.40
2019-04-25T16:32:57.843Z,23.40
2019-04-25T16:38:03.316Z,23.30
2019-04-25T16:43:08.575Z,23.40
2019-04-25T16:48:18.946Z,22.60
2019-04-25T16:53:22.570Z,22.10
2019-04-25T16:58:26.187Z,22.00
2019-04-25T17:03:35.988Z,22.10
2019-04-25T17:08:40.243Z,22.20
2019-04-25T17:13:48.337Z,22.70
2019-04-25T17:19:02.748Z,22.20
2019-04-25T17:24:09.539Z,22.20
2019-04-25T17:29:14.999Z,22.10
2019-04-25T17:34:36.670Z,21.90
2019-04-25T17:39:42.169Z,22.10
2019-04-25T17:44:46.038Z,21.80
2019-04-25T17:49:51.312Z,21.80
2019-04-25T17:55:01.051Z,21.80
2019-04-25T18:00:09.384Z,21.70
2019-04-25T18:05:15.151Z,21.90
2019-04-25T18:10:21.963Z,22.00
2019-04-25T18:15:33.095Z,22.20
2019-04-25T18:20:40.958Z,22.20
2019-04-25T18:26:00.130Z,22.20
2019-04-25T18:31:05.438Z,21.40
2019-04-25T18:36:26.999Z,20.90
2019-04-25T18:41:32.332Z,21.10
2019-04-25T18:46:40.782Z,21.50
2019-04-25T18:51:56.414Z,21.30
2019-04-25T18:57:08.847Z,20.80
2019-04-25T19:02:16.866Z,21.00
2019-04-25T19:07:24.064Z,20.40
2019-04-25T19:12:33.645Z,19.80
2019-04-25T19:17:40.386Z,20.00
2019-04-25T19:22:48.326Z,19.40
2019-04-25T19:27:52.315Z,19.30
2019-04-25T19:33:00.798Z,19.10
2019-04-25T19:38:08.919Z,19.00
2019-04-25T19:43:22.664Z,18.30
2019-04-25T19:48:31.950Z,17.90
2019-04-25T19:53:40.684Z,17.80
2019-04-25T19:58:47.445Z,17.90
2019-04-25T20:03:58.381Z,16.90
2019-04-25T20:09:23.320Z,16.50
2019-04-25T20:14:35.802Z,16.90
2019-04-25T20:19:43.286Z,17.10
2019-04-25T20:24:50.380Z,16.70
2019-04-25T20:29:54.609Z,17.00
2019-04-25T20:35:07.403Z,16.70
2019-04-25T20:40:14.568Z,16.40
2019-04-25T20:45:18.933Z,15.90
2019-04-25T20:50:28.248Z,15.50
2019-04-25T20:55:31.886Z,15.50
2019-04-25T21:00:43.930Z,15.30
2019-04-25T21:05:48.549Z,14.80
2019-04-25T21:10:53.725Z,15.00
2019-04-25T21:16:07.534Z,14.50
2019-04-25T21:21:11.168Z,14.20
2019-04-25T21:26:14.769Z,13.80
2019-04-25T21:31:21.409Z,13.50
2019-04-25T21:36:28.334Z,12.90
2019-04-25T21:41:51.466Z,12.90
2019-04-25T21:47:00.608Z,12.70
2019-04-25T21:52:04.699Z,12.70
2019-04-25T21:57:11.465Z,12.80
2019-04-25T22:02:16.922Z,12.80
2019-04-25T22:07:20.847Z,12.40
2019-04-25T22:12:30.704Z,12.00
2019-04-25T22:17:36.038Z,11.90
2019-04-25T22:22:42.558Z,11.90
2019-04-25T22:27:52.826Z,11.90
2019-04-25T22:33:19.293Z,11.80
2019-04-25T22:38:27.697Z,11.60
2019-04-25T22:43:32.935Z,11.70
2019-04-25T22:48:48.662Z,11.20
2019-04-25T22:53:53.674Z,11.40
2019-04-25T22:58:59.147Z,11.50
2019-04-25T23:04:16.561Z,11.50
2019-04-25T23:09:24.307Z,11.20
2019-04-25T23:14:29.884Z,11.20
2019-04-25T23:19:36.691Z,11.20
2019-04-25T23:24:42.027Z,11.50
2019-04-25T23:29:47.305Z,11.30
2019-04-25T23:34:51.296Z,11.20
2019-04-25T23:39:55.397Z,11.10
2019-04-25T23:45:07.119Z,11.00
2019-04-25T23:50:14.764Z,10.90
2019-04-25T23:55:21.973Z,11.00
